XML Sitemap

This is a XML Sitemap which is supposed to be processed by search engines which follow the XML Sitemap standard like Ask.com, Bing, Google and Yahoo.
It was generated using the WordPress content management system and the Google Sitemap Generator Plugin by Arne Brachhold.
You can find more information about XML sitemaps on sitemaps.org and Google's list of sitemap programs.

URLPriorityChange frequencyLast modified (GMT)
http://tubiamo.net/2015/02/28/uomini-e-donne-anticipazioni-amedeo-andreozzi-lascia-il-trono-per-corteggiare-valentina-dallari-104191/20%Monthly2015-03-01 05:49
http://tubiamo.net/2015/02/28/il-bosco-anticipazioni-terza-puntata-del-6-marzo-2015-fiction-canale-5-104186/20%Monthly2015-02-28 11:11
http://tubiamo.net/2015/02/28/il-segreto-video-streaming-puntata-di-sabato-28-febbraio-2015-104183/20%Monthly2015-02-28 09:29
http://tubiamo.net/2015/02/28/video-il-bosco-streaming-seconda-puntata-del-27-febbraio-2015-104174/20%Monthly2015-02-28 06:34
http://tubiamo.net/2015/02/27/video-il-segreto-streaming-puntata-di-oggi-venerdi-27-febbraio-2015-104170/20%Monthly2015-02-28 05:37
http://tubiamo.net/2015/02/27/le-iene-show-puntata-26022015-la-moda-del-big-booty-le-foto-rubate-di-ilary-blasi-104164/20%Monthly2015-02-27 05:26
http://tubiamo.net/2015/02/27/le-iene-show-bum-bum-brasile-la-moda-del-sedere-rifatto-e-i-rischi-del-silicone-video-104159/20%Monthly2015-02-27 04:36
http://tubiamo.net/2015/02/26/video-il-segreto-streaming-puntata-di-oggi-giovedi-25-febbraio-2015-104132/20%Monthly2015-02-27 00:58
http://tubiamo.net/2015/02/26/isola-dei-famosi-2015-il-regalo-di-alex-belli-a-cristina-buccino-video-104127/20%Monthly2015-02-26 05:29
http://tubiamo.net/2015/02/26/striscia-la-notizia-tapiro-doro-per-sabrina-ferilli-del-25-febbraio-2015-video-104121/20%Monthly2015-02-26 05:07
http://tubiamo.net/2015/02/26/chiara-iezzi-a-the-voice-of-itally-2015-prima-puntata-blind-audition-104117/20%Monthly2015-02-26 08:37
http://tubiamo.net/2015/02/26/solo-per-amore-streaming-video-nona-puntata-del-25-febbraio-2015-104109/20%Monthly2015-02-26 03:08
http://tubiamo.net/2015/02/26/video-solo-per-amore-anticipazioni-ultima-puntata-del-4-marzo-2015-104105/20%Monthly2015-02-26 10:28
http://tubiamo.net/2015/02/25/anticipazioni-il-segreto-maria-rivela-a-fernando-di-sapere-che-lha-violentata-104101/20%Monthly2015-02-26 11:08
http://tubiamo.net/2015/02/25/video-il-segreto-streaming-puntata-di-oggi-mercoledi-25-febbraio-2015-104098/20%Monthly2015-02-26 03:21
http://tubiamo.net/2015/02/25/i-nuovi-mostri-di-striscia-il-gonnellino-di-brice-martinet-sollevato-dal-vento-sullisola-dei-famosi-104094/20%Monthly2015-02-25 05:16
http://tubiamo.net/2015/02/25/chirurgo-senza-bisturi-pizzicato-da-striscia-la-notizia-a-pordenone-24022015-104088/20%Monthly2015-02-25 04:50
http://tubiamo.net/2015/02/25/maurizio-crozza-imita-marchionne-a-dimartedi-video-copertina-del-24022015-104082/20%Monthly2015-02-25 04:19
http://tubiamo.net/2015/02/25/sfida-al-cielo-la-narcotici-2-streaming-video-seconda-puntata-del-24022015-104077/20%Monthly2015-02-25 11:56
http://tubiamo.net/2015/02/25/juventus-borussia-dortmund-2-1-telecronache-zambruno-e-paolino-direttastadio-24022015-104072/20%Monthly2015-02-25 03:00
http://tubiamo.net/2015/02/24/isola-dei-famosi-2015-cristina-buccino-seduce-alex-belli-fanny-neguesha-abbandona-104058/20%Monthly2015-02-24 11:41
http://tubiamo.net/2015/02/24/il-segreto-streaming-video-puntata-di-martedi-24-febbraio-2015-104054/20%Monthly2015-02-25 04:21
http://tubiamo.net/2015/02/24/boss-in-incognito-2-streaming-video-nona-puntata-del-23-febbraio-2015-104043/20%Monthly2015-02-24 09:37
http://tubiamo.net/2015/02/24/sfida-al-cielo-la-narcotici-2-streaming-video-prima-puntata-del-23-febbraio-2015-104040/20%Monthly2015-02-24 11:19
http://tubiamo.net/2015/02/24/tiki-taka-streaming-video-puntata-del-23-febbraio-2015-104038/20%Monthly2015-02-24 02:48
http://tubiamo.net/2015/02/24/isola-dei-famosi-2015-streaming-video-quarta-puntata-del-23022014-melissa-p-eliminata-104034/20%Monthly2015-02-24 09:33
http://tubiamo.net/2015/02/23/il-segreto-video-streaming-puntata-di-oggi-lunedi-23-febbraio-2015-104024/20%Monthly2015-02-24 01:56
http://tubiamo.net/2015/02/23/braccialetti-rossi-2-anticipazioni-terza-puntata-dell1-marzo-2015-cris-pensa-al-suicidio-104020/20%Monthly2015-02-23 09:48
http://tubiamo.net/2015/02/23/video-luciana-littizzetto-a-che-tempo-che-fa-del-22022015-104012/20%Monthly2015-02-23 07:10
http://tubiamo.net/2015/02/23/video-il-segreto-streaming-puntata-del-22-febbraio-2015-104006/20%Monthly2015-02-23 05:43
http://tubiamo.net/2015/02/23/braccialetti-rossi-2-streaming-video-seconda-puntata-del-22-febbraio-2015-104003/20%Monthly2015-02-24 09:40
http://tubiamo.net/2015/02/22/il-segreto-anticipazioni-puntate-dal-23-al-28-febbraio-2015-104000/20%Monthly2015-02-23 10:46
http://tubiamo.net/2015/02/22/notti-sul-ghiaccio-3-streaming-video-prima-puntata-del-21-febbraio-2015-103994/20%Monthly2015-02-22 06:15
http://tubiamo.net/2015/02/22/video-ce-posta-per-te-i-consigli-di-barbara-durso-a-luciana-littizzetto-103987/20%Monthly2015-02-22 04:31
http://tubiamo.net/2015/02/21/il-bosco-streaming-video-prima-puntata-del-20-febbraio-2015-fiction-canale-5-103960/20%Monthly2015-02-21 04:59
http://tubiamo.net/2015/02/20/un-passo-dal-cielo-3-streaming-video-settima-puntata-del-19-febbraio-2015-103973/20%Monthly2015-02-20 06:04
http://tubiamo.net/2015/02/20/le-iene-finto-terrorista-islamico-a-la-zanzara-rischia-12-anni-di-carcere-103966/20%Monthly2015-02-20 04:37
http://tubiamo.net/2015/02/19/uomini-e-donne-anticipazioni-amedeo-ha-cercato-di-baciare-nicole-registrazione-18022014-103953/20%Monthly2015-02-19 10:21
http://tubiamo.net/2015/02/19/il-segreto-video-streaming-puntata-di-oggi-giovedi-19-febbraio-2015-103950/20%Monthly2015-02-20 02:24
http://tubiamo.net/2015/02/19/solo-per-amore-anticipazioni-nona-puntata-del-25-febbraio-2015-103945/20%Monthly2015-02-19 05:10
http://tubiamo.net/2015/02/19/solo-per-amore-streaming-video-ottava-puntata-del-18022014-103938/20%Monthly2015-02-19 04:28
http://tubiamo.net/2015/02/18/il-segreto-streaming-video-puntata-di-oggi-mercoledi-18-gennaio-2015-103929/20%Monthly2015-02-19 01:56
http://tubiamo.net/2015/02/18/braccialetti-rossi-2-anticipazioni-seconda-stagione-leo-muore-103922/20%Monthly2015-02-18 05:06
http://tubiamo.net/2015/02/18/uomini-e-donne-andrea-e-valentina-fidanzati-erano-daccordo-gia-prima-della-scelta-103917/20%Monthly2015-02-18 05:57
http://tubiamo.net/2015/02/18/loriana-streaming-video-seconda-puntata-fiction-rai-uno-103911/20%Monthly2015-02-18 06:17
http://tubiamo.net/2015/02/17/braccialetti-rossi-2-anticipazioni-seconda-puntata-22022015-leo-lascia-cris-103903/20%Monthly2015-02-17 11:05
http://tubiamo.net/2015/02/17/video-il-segreto-streaming-puntata-di-oggi-martedi-17-febbraio-2015-103897/20%Monthly2015-02-18 04:44
http://tubiamo.net/2015/02/17/isola-dei-famosi-2015-streaming-video-terza-puntata-charlotte-caniggia-eliminata-103892/20%Monthly2015-02-17 05:25
http://tubiamo.net/2015/02/17/tiki-taka-streaming-video-puntata-del-16-febbraio-2015-103887/20%Monthly2015-02-17 14:48
http://tubiamo.net/2015/02/17/boss-in-incognito-2-streaming-video-ottava-puntata-del-16-febbraio-2015-103882/20%Monthly2015-02-17 09:00
http://tubiamo.net/2015/02/17/loriana-streaming-video-prima-puntata-del-16022015-fiction-rai-uno-103879/20%Monthly2015-02-17 09:37
http://tubiamo.net/2015/02/16/isola-dei-famosi-2015-cristina-buccino-e-rocco-siffredi-il-segucio-di-patate-bollenti-103872/20%Monthly2015-02-16 10:14
http://tubiamo.net/2015/02/16/amici-2015-emma-marrone-e-forse-alessandra-amoroso-direttori-artistici-103863/20%Monthly2015-02-16 06:01
http://tubiamo.net/2015/02/16/il-segreto-video-anticipazioni-e-trame-puntate-dal-16-al-21-febbraio-2015-103859/20%Monthly2015-02-16 09:47
http://tubiamo.net/2015/02/16/presadiretta-streaming-video-puntata-del-15-febbraio-2015-nutrire-il-pianeta-103854/20%Monthly2015-02-16 03:56
http://tubiamo.net/2015/02/16/luciana-littizzetto-a-che-tempo-che-fa-del-15022015-il-bancomat-per-pagare-le-candele-103849/20%Monthly2015-02-16 03:37
http://tubiamo.net/2015/02/16/braccialetti-rossi-2-streaming-video-prima-puntata-del-15-febbraio-2015-103844/20%Monthly2015-02-16 14:02
http://tubiamo.net/2015/02/16/video-il-segreto-streaming-puntata-di-domenica-15-febbraio-2015-103839/20%Monthly2015-02-16 02:26
http://tubiamo.net/2015/02/15/braccialetti-rossi-2-anticipazioni-prima-puntata-del-15-febbraio-2015-103833/20%Monthly2015-02-15 09:56
http://tubiamo.net/2015/02/15/video-il-volo-vince-sanremo-2015-con-grande-amore-103827/20%Monthly2015-02-15 04:03
http://tubiamo.net/2015/02/14/il-segreto-video-streaming-puntata-di-sabato-14-febbraio-2015-103825/20%Monthly2015-02-14 07:15
http://tubiamo.net/2015/02/14/giovanni-caccamo-ha-vinto-sanremo-2015-fra-i-giovani-con-ritornero-da-te-103819/20%Monthly2015-02-14 06:57
http://tubiamo.net/2015/02/13/sanremo-2015-luca-e-paolo-e-il-monologo-sulle-nozze-gay-il-matrimonio-103813/20%Monthly2015-02-13 10:32
http://tubiamo.net/2015/02/13/isola-dei-famosi-2015-cristina-buccino-limitazione-di-scanu-e-gli-apprezzamenti-di-rocco-siffredi-103806/20%Monthly2015-02-13 10:10
http://tubiamo.net/2015/02/13/il-segreto-streaming-video-puntata-di-venerdi-13-febbraio-2015-103797/20%Monthly2015-02-13 18:52
http://tubiamo.net/2015/02/13/video-il-segreto-anticipazioni-maria-ricorda-di-essere-stata-violentata-da-fernando-103790/20%Monthly2015-02-13 09:48
http://tubiamo.net/2015/02/13/sanremo-2015-terza-serata-nek-miglior-cover-luca-e-paolo-e-massimo-ferrero-show-103785/20%Monthly2015-02-13 06:11
http://tubiamo.net/2015/02/13/sanremo-2015-serata-cover-vince-nek-con-telefonando-secondi-il-volo-103778/20%Monthly2015-02-13 04:47
http://tubiamo.net/2015/02/12/striscia-la-notizia-albano-e-romina-a-sanremo-2015-dopo-il-fuori-onda-in-arrivo-il-tapiro-103771/20%Monthly2015-02-12 11:00
http://tubiamo.net/2015/02/12/video-il-segreto-streaming-puntata-di-giovedi-12-febbraio-2015-103766/20%Monthly2015-02-13 04:35
http://tubiamo.net/2015/02/12/anticipazioni-il-segreto-maria-scopre-che-fernando-la-droga-per-violentarla-di-notte-103760/20%Monthly2015-02-12 06:59
http://tubiamo.net/2015/02/12/il-volo-a-sanremo-2015-lacrime-di-gioia-per-i-vincitori-annunciati-con-grande-amore-103753/20%Monthly2015-02-12 05:34
http://tubiamo.net/2015/02/12/belen-rodriguez-tapiro-doro-striscia-la-notizia-11-febbraio-2015-video-103748/20%Monthly2015-02-12 03:59
http://tubiamo.net/2015/02/12/sanremo-2015-il-fuorionda-di-romina-power-ad-albano-sacco-di-m-striscia-la-notizia-103743/20%Monthly2015-02-12 03:33
http://tubiamo.net/2015/02/11/il-segreto-video-streaming-puntata-pomeridiana-di-mercoledi-11-febbraio-2015-103739/20%Monthly2015-02-11 06:08
http://tubiamo.net/2015/02/11/il-segreto-streaming-video-puntata-serale-di-mercoledi-11-febbraio-2016-103734/20%Monthly2015-02-12 02:29
http://tubiamo.net/2015/02/11/sanremo-2015-le-pagelle-della-prima-serata-la-migliore-e-malika-ayane-male-i-dear-jack-103729/20%Monthly2015-02-11 05:36
http://tubiamo.net/2015/02/10/video-cristina-buccino-sbarca-sullisola-dei-famosi-2015-e-lei-la-13a-naufraga-103722/20%Monthly2015-02-10 10:55
http://tubiamo.net/2015/02/10/anticipazioni-sanremo-2015-prima-puntata-10022015-cantanti-big-in-gara-e-ospiti-103714/20%Monthly2015-02-10 10:28
http://tubiamo.net/2015/02/10/video-il-segreto-streaming-puntata-del-10-febbraio-2015-103711/20%Monthly2015-02-10 16:21
http://tubiamo.net/2015/02/10/isola-dei-famosi-2015-seconda-puntata-del-9022015-oliva-eliminato-cristina-buccino-naufraga-103704/20%Monthly2015-02-10 06:21
http://tubiamo.net/2015/02/10/un-passo-dal-cielo-3-streaming-video-sesta-puntata-del-9-febbraio-2015-103697/20%Monthly2015-02-10 04:44
http://tubiamo.net/2015/02/09/il-segreto-video-streaming-puntata-di-lunedi-9-febbraio-2015-103690/20%Monthly2015-02-10 04:21
http://tubiamo.net/2015/02/09/video-il-segreto-anticipazioni-puntate-da-lunedi-9-a-sabato-14-febbraio-2015-103685/20%Monthly2015-02-09 10:23
http://tubiamo.net/2015/02/09/il-segreto-streaming-video-puntata-di-domenica-9-febbraio-2015-103679/20%Monthly2015-02-09 04:02
http://tubiamo.net/2015/02/07/video-il-segreto-streaming-puntata-di-sabato-7-febbraio-2016-103672/20%Monthly2015-02-06 13:46
http://tubiamo.net/2015/02/06/video-uomini-e-donne-anticipazioni-registrazione-del-4022015-49-corteggiatrici-per-fabio-103676/20%Monthly2015-02-09 06:22
http://tubiamo.net/2015/02/06/isola-dei-famosi-10-fanny-neguesha-morsa-da-u-medusa-alex-belli-mi-ha-pisciato-addosso-103668/20%Monthly2015-02-06 13:20
http://tubiamo.net/2015/02/06/solo-per-amore-streaming-video-settima-puntata-del-6-febbraio-2015-103661/20%Monthly2015-02-06 14:31
http://tubiamo.net/2015/02/06/il-segreto-video-streaming-puntata-di-venerdi-6-febbraio-2015-103562/20%Monthly2015-02-02 13:28
http://tubiamo.net/2015/02/05/un-passo-dal-cielo-3-streaming-video-quinta-puntata-5-febbraio-2015-103615/20%Monthly2015-02-03 16:13
http://tubiamo.net/2015/02/05/il-segreto-video-streaming-puntata-di-giovedi-5-febbraio-2015-103541/20%Monthly2015-02-01 17:57
http://tubiamo.net/2015/02/04/isola-dei-famosi-2015-cristina-buccino-e-margot-ovani-chi-sara-il-tredicesimo-naufrago-103651/20%Monthly2015-02-04 16:58
http://tubiamo.net/2015/02/04/anticipazioni-sanremo-2015-il-cast-di-braccialetti-rossi-2-e-niccolo-agliardi-ospiti-103640/20%Monthly2015-02-04 14:06
http://tubiamo.net/2015/02/04/video-solo-per-amore-streaming-sesta-puntata-del-4-febbraio-2015-103632/20%Monthly2015-02-05 08:15
http://tubiamo.net/2015/02/04/video-il-segreto-streaming-puntata-di-mercoledi-4-febbraio-2015-103627/20%Monthly2015-02-04 16:23
http://tubiamo.net/2015/02/03/isola-dei-famosi-2015-fanny-neguesha-in-bikini-lato-b-perfetto-a-playa-bonita-103620/20%Monthly2015-02-03 16:40
http://tubiamo.net/2015/02/03/unici-pino-daniele-tu-dimmi-quando-anticipazioni-speciale-del-3-febbraio-2015-103608/20%Monthly2015-02-04 08:17
http://tubiamo.net/2015/02/03/il-segreto-video-streaming-puntata-di-martedi-3-febbraio-2015-103602/20%Monthly2015-02-03 16:42
http://tubiamo.net/2015/02/03/catherine-spaak-lascia-lisola-dei-famosi-2015-alla-prima-puntata-contrasti-con-la-produzione-103587/20%Monthly2015-02-03 10:23
http://tubiamo.net/2015/02/02/tiki-taka-anticipazioni-ospiti-e-streaming-video-puntata-2-febbraio-2015-103575/20%Monthly2015-02-03 10:56
http://tubiamo.net/2015/02/02/boss-in-incognito-2-streaming-video-puntata-del-2-febbraio-2015-103570/20%Monthly2015-02-03 08:21
http://tubiamo.net/2015/02/02/con-il-sole-negli-occhi-streaming-video-film-di-pupi-avati-su-rai-uno-del-2022015-103565/20%Monthly2015-02-03 08:22
http://tubiamo.net/2015/02/02/isola-dei-famosi-10-anticipazioni-e-info-streaming-prima-puntata-2-febbraio-2015-103558/20%Monthly2015-02-02 11:12
http://tubiamo.net/2015/02/02/video-il-segreto-streaming-puntata-di-lunedi-2-febbraio-2015-103551/20%Monthly2015-02-02 16:58
http://tubiamo.net/2015/02/02/amici-14-anticipazioni-puntata-speciale-di-lunedi-2-febbraio-2015-103546/20%Monthly2015-02-02 10:15
http://tubiamo.net/2015/02/01/anticipazioni-braccialetti-rossi-2-la-prima-puntata-in-anteprima-al-cinema-dall8-febbraio-2015-103532/20%Monthly2015-02-01 17:28
http://tubiamo.net/2015/02/01/video-il-segreto-anticipazioni-e-trame-puntate-dal-2-al-7-febbraio-2015-103524/20%Monthly2015-02-01 15:03
http://tubiamo.net/2015/02/01/video-il-segreto-streaming-puntata-di-domenica-1-febbraio-2015-103519/20%Monthly2015-02-02 08:18